Time;durP1;ratioP1;P1;durP2;ratioP2;P2;SDS_P1;SDS_P2;PMS_P1;PMS_P2;Temp;Humidity;BMP_temperature;BMP_pressure;BME280_temperature;BME280_humidity;BME280_pressure;Samples;Min_cycle;Max_cycle;Signal;HPM_P1;HPM_P2
2023/04/18 00:01:44;;;;;;;0.10;0.10;;;9.30;99.90;;;;;;5064540;28;20714;-82
2023/04/18 00:04:10;;;;;;;0.10;0.10;;;9.30;99.90;;;;;;5069039;28;20184;-82
2023/04/18 00:06:35;;;;;;;0.10;0.10;;;9.20;99.90;;;;;;5062034;28;20185;-82
2023/04/18 00:09:02;;;;;;;0.10;0.10;;;9.20;99.90;;;;;;5064091;28;20227;-81
2023/04/18 00:11:28;;;;;;;0.10;0.10;;;9.20;99.90;;;;;;5065183;28;20188;-82
2023/04/18 00:13:54;;;;;;;0.10;0.10;;;9.20;99.90;;;;;;5063744;28;20216;-81
2023/04/18 00:16:21;;;;;;;0.10;0.10;;;9.20;99.90;;;;;;5065410;28;20598;-82
2023/04/18 00:18:47;;;;;;;0.10;0.10;;;9.20;99.90;;;;;;5068912;28;20192;-82
2023/04/18 00:21:12;;;;;;;0.00;0.00;;;9.20;99.90;;;;;;5063869;28;20180;-82
2023/04/18 00:23:38;;;;;;;0.10;0.10;;;9.20;99.90;;;;;;5060026;28;20205;-82
2023/04/18 00:26:04;;;;;;;0.10;0.10;;;9.10;99.90;;;;;;5063683;28;20269;-82
2023/04/18 00:28:29;;;;;;;0.10;0.10;;;9.10;99.90;;;;;;5066412;28;20244;-82
2023/04/18 00:30:55;;;;;;;0.10;0.10;;;9.00;99.90;;;;;;5067872;28;20692;-82
2023/04/18 00:33:20;;;;;;;0.10;0.10;;;9.00;99.90;;;;;;5066635;28;20208;-83
2023/04/18 00:35:46;;;;;;;0.10;0.10;;;9.00;99.90;;;;;;5065205;28;20969;-82
2023/04/18 00:38:11;;;;;;;0.10;0.10;;;9.10;99.90;;;;;;5063081;28;20226;-83
2023/04/18 00:40:37;;;;;;;0.10;0.10;;;9.00;99.90;;;;;;5065413;28;20545;-82
2023/04/18 00:43:03;;;;;;;0.10;0.10;;;9.10;99.90;;;;;;5066772;28;20180;-82
2023/04/18 00:45:28;;;;;;;0.10;0.10;;;9.10;99.90;;;;;;5064359;28;20205;-82
2023/04/18 00:47:55;;;;;;;0.10;0.10;;;9.00;99.90;;;;;;5064083;28;20659;-82
2023/04/18 00:50:22;;;;;;;0.10;0.10;;;9.00;99.90;;;;;;5063896;28;20188;-82
2023/04/18 00:52:48;;;;;;;0.00;0.00;;;9.00;99.90;;;;;;5065138;28;20533;-82
2023/04/18 00:55:14;;;;;;;0.00;0.00;;;9.00;99.90;;;;;;5063297;28;20204;-83
2023/04/18 00:57:41;;;;;;;0.10;0.10;;;8.90;99.90;;;;;;5064236;28;20215;-82
2023/04/18 01:00:08;;;;;;;2.67;2.57;;;8.90;99.90;;;;;;5066014;28;20181;-82
2023/04/18 01:02:34;;;;;;;0.00;0.00;;;8.90;99.90;;;;;;5065108;28;20235;-82
2023/04/18 01:05:01;;;;;;;0.10;0.10;;;8.90;99.90;;;;;;5060208;28;21081;-82
2023/04/18 01:07:27;;;;;;;0.03;0.03;;;8.90;99.90;;;;;;5067178;28;20200;-82
2023/04/18 01:09:53;;;;;;;0.10;0.10;;;8.80;99.90;;;;;;5064853;28;20173;-83
2023/04/18 01:12:18;;;;;;;0.10;0.10;;;8.80;99.90;;;;;;5065324;28;21318;-82
2023/04/18 01:14:44;;;;;;;0.83;0.83;;;8.80;99.90;;;;;;5065605;28;20764;-83
2023/04/18 01:17:09;;;;;;;0.10;0.10;;;8.70;99.90;;;;;;5061613;28;20213;-82
2023/04/18 01:19:36;;;;;;;0.10;0.10;;;8.70;99.90;;;;;;5064281;28;20232;-82
2023/04/18 01:22:02;;;;;;;0.10;0.10;;;8.60;99.90;;;;;;5065006;28;20214;-82
2023/04/18 01:24:30;;;;;;;0.10;0.10;;;8.70;99.90;;;;;;5059026;28;20209;-82
2023/04/18 01:26:57;;;;;;;1.17;1.17;;;8.70;99.90;;;;;;5059289;28;20185;-82
2023/04/18 01:29:23;;;;;;;0.10;0.10;;;8.60;99.90;;;;;;5063144;28;20193;-82
2023/04/18 01:31:49;;;;;;;0.20;0.20;;;8.60;99.90;;;;;;5066432;28;20287;-82
2023/04/18 01:34:16;;;;;;;0.10;0.10;;;8.50;99.90;;;;;;5060277;28;20255;-82
2023/04/18 01:36:42;;;;;;;0.10;0.10;;;8.60;99.90;;;;;;5064994;28;20203;-82
2023/04/18 01:39:08;;;;;;;0.10;0.10;;;8.50;99.90;;;;;;5059874;28;20192;-82
2023/04/18 01:41:34;;;;;;;0.10;0.10;;;8.60;99.90;;;;;;5062624;28;20179;-82
2023/04/18 01:44:00;;;;;;;0.10;0.10;;;8.50;99.90;;;;;;5062218;28;20185;-82
2023/04/18 01:46:25;;;;;;;0.10;0.10;;;8.50;99.90;;;;;;5062453;28;20206;-82
2023/04/18 01:48:51;;;;;;;0.10;0.10;;;8.40;99.90;;;;;;5059855;28;20242;-82
2023/04/18 01:51:17;;;;;;;0.10;0.10;;;8.40;99.90;;;;;;5060586;28;20268;-82
2023/04/18 01:53:42;;;;;;;0.10;0.10;;;8.40;99.90;;;;;;5064709;28;20282;-82
2023/04/18 01:56:09;;;;;;;0.07;0.07;;;8.40;99.90;;;;;;5063555;28;20214;-82
2023/04/18 01:58:35;;;;;;;0.10;0.10;;;8.30;99.90;;;;;;5063118;28;20180;-82
2023/04/18 02:01:00;;;;;;;0.00;0.00;;;8.30;99.90;;;;;;5060331;28;20224;-82
2023/04/18 02:03:26;;;;;;;0.10;0.10;;;8.20;99.90;;;;;;5065750;28;20303;-82
2023/04/18 02:05:51;;;;;;;0.10;0.10;;;8.20;99.90;;;;;;5060589;28;20197;-82
2023/04/18 02:08:17;;;;;;;0.10;0.10;;;8.20;99.90;;;;;;5060649;28;20187;-83
2023/04/18 02:10:43;;;;;;;0.10;0.10;;;8.10;99.90;;;;;;5062646;28;20714;-83
2023/04/18 02:13:08;;;;;;;0.10;0.10;;;8.20;99.90;;;;;;5061901;28;20570;-81
2023/04/18 02:15:34;;;;;;;0.10;0.10;;;8.10;99.90;;;;;;5064386;28;20823;-82
2023/04/18 02:18:00;;;;;;;0.10;0.10;;;8.10;99.90;;;;;;5064991;28;20995;-83
2023/04/18 02:20:27;;;;;;;0.10;0.10;;;8.00;99.90;;;;;;5068039;28;20548;-83
2023/04/18 02:22:53;;;;;;;0.10;0.10;;;8.00;99.90;;;;;;5058502;28;20173;-82
2023/04/18 02:25:22;;;;;;;0.10;0.10;;;7.90;99.90;;;;;;5063976;28;20204;-82
2023/04/18 02:27:48;;;;;;;0.10;0.10;;;7.90;99.90;;;;;;5065792;28;20190;-82
2023/04/18 02:30:13;;;;;;;0.10;0.10;;;7.90;99.90;;;;;;5065965;28;21159;-83
2023/04/18 02:32:39;;;;;;;0.10;0.10;;;7.80;99.90;;;;;;5065491;28;20257;-82
2023/04/18 02:35:05;;;;;;;0.10;0.10;;;7.80;99.90;;;;;;5064877;28;20212;-82
2023/04/18 02:37:30;;;;;;;0.10;0.10;;;7.80;99.90;;;;;;5062807;28;20691;-82
2023/04/18 02:39:56;;;;;;;0.10;0.10;;;7.80;99.90;;;;;;5061942;28;20195;-82
2023/04/18 02:42:21;;;;;;;0.10;0.10;;;7.70;99.90;;;;;;5063984;28;20184;-83
2023/04/18 02:44:47;;;;;;;0.10;0.10;;;7.70;99.90;;;;;;5065622;28;20278;-83
2023/04/18 02:47:12;;;;;;;0.10;0.10;;;7.80;99.90;;;;;;5065052;28;20690;-83
2023/04/18 02:49:38;;;;;;;0.10;0.10;;;7.70;99.90;;;;;;5064738;28;20196;-82
2023/04/18 02:52:03;;;;;;;0.10;0.10;;;7.70;99.90;;;;;;5067432;28;21056;-83
2023/04/18 02:54:29;;;;;;;0.10;0.10;;;7.70;99.90;;;;;;5063688;28;20238;-82
2023/04/18 02:56:55;;;;;;;0.10;0.10;;;7.70;99.90;;;;;;5062298;28;20243;-82
2023/04/18 02:59:21;;;;;;;0.07;0.07;;;7.70;99.90;;;;;;5067017;28;20226;-83
2023/04/18 03:01:46;;;;;;;0.10;0.10;;;7.80;99.90;;;;;;5064174;28;20191;-83
2023/04/18 03:04:12;;;;;;;0.10;0.10;;;7.80;99.90;;;;;;5062427;28;20950;-82
2023/04/18 03:06:37;;;;;;;0.10;0.10;;;7.80;99.90;;;;;;5064598;28;20192;-83
2023/04/18 03:09:03;;;;;;;0.10;0.10;;;7.80;99.90;;;;;;5067424;28;20216;-82
2023/04/18 03:11:29;;;;;;;0.10;0.10;;;7.80;99.90;;;;;;5066588;28;20196;-82
2023/04/18 03:13:55;;;;;;;0.10;0.10;;;7.90;99.90;;;;;;5063980;28;20187;-83
2023/04/18 03:16:20;;;;;;;0.10;0.10;;;7.80;99.90;;;;;;5066310;28;20208;-82
2023/04/18 03:18:46;;;;;;;0.10;0.10;;;7.80;99.90;;;;;;5066333;28;20532;-82
2023/04/18 03:21:13;;;;;;;0.10;0.10;;;7.80;99.90;;;;;;5063898;28;20195;-82
2023/04/18 03:23:38;;;;;;;0.10;0.10;;;7.70;99.90;;;;;;5064895;28;20223;-82
2023/04/18 03:26:07;;;;;;;0.10;0.10;;;7.70;99.90;;;;;;5061649;28;20623;-83
2023/04/18 03:28:33;;;;;;;0.10;0.10;;;7.60;99.90;;;;;;5064366;28;20195;-83
2023/04/18 03:30:59;;;;;;;0.10;0.10;;;7.60;99.90;;;;;;5060593;28;20226;-82
2023/04/18 03:33:24;;;;;;;0.10;0.10;;;7.50;99.90;;;;;;5059030;28;20236;-83
2023/04/18 03:35:50;;;;;;;0.10;0.10;;;7.50;99.90;;;;;;5063049;28;20324;-82
2023/04/18 03:38:15;;;;;;;0.10;0.10;;;7.50;99.90;;;;;;5059631;28;20286;-82
2023/04/18 03:40:43;;;;;;;0.10;0.10;;;7.40;99.90;;;;;;5063425;28;20647;-82
2023/04/18 03:43:09;;;;;;;0.10;0.10;;;7.40;99.90;;;;;;5062650;28;20237;-83
2023/04/18 03:45:34;;;;;;;0.10;0.10;;;7.40;99.90;;;;;;5061801;28;20200;-82
2023/04/18 03:48:00;;;;;;;1.37;1.37;;;7.40;99.90;;;;;;5064787;28;20184;-82
2023/04/18 03:50:26;;;;;;;0.10;0.10;;;7.30;99.90;;;;;;5060020;28;20228;-82
2023/04/18 03:52:51;;;;;;;0.03;0.03;;;7.20;99.90;;;;;;5066540;28;20269;-83
2023/04/18 03:55:18;;;;;;;0.10;0.10;;;7.20;99.90;;;;;;5069417;28;20201;-82
2023/04/18 03:57:44;;;;;;;0.10;0.10;;;7.10;99.90;;;;;;5069229;28;20218;-82
2023/04/18 04:00:11;;;;;;;0.10;0.10;;;7.10;99.90;;;;;;5069482;28;20187;-82
2023/04/18 04:02:37;;;;;;;0.10;0.10;;;7.00;99.90;;;;;;5069398;28;20216;-83
2023/04/18 04:05:03;;;;;;;0.10;0.10;;;6.90;99.90;;;;;;5063473;28;20314;-83
2023/04/18 04:07:30;;;;;;;0.10;0.10;;;6.90;99.90;;;;;;5069007;28;20189;-82
2023/04/18 04:09:57;;;;;;;0.10;0.10;;;6.90;99.90;;;;;;5061382;28;20243;-84
2023/04/18 04:12:23;;;;;;;0.20;0.20;;;6.90;99.90;;;;;;5065735;28;20189;-82
2023/04/18 04:14:49;;;;;;;0.10;0.10;;;6.80;99.90;;;;;;5068029;28;20214;-82
2023/04/18 04:17:14;;;;;;;0.50;0.50;;;6.80;99.90;;;;;;5068032;28;20201;-83
2023/04/18 04:19:40;;;;;;;0.10;0.10;;;6.80;99.90;;;;;;5067502;28;20607;-83
2023/04/18 04:22:06;;;;;;;0.10;0.10;;;6.70;99.90;;;;;;5068030;28;20190;-82
2023/04/18 04:24:32;;;;;;;0.10;0.10;;;6.70;99.90;;;;;;5067306;28;20206;-83
2023/04/18 04:26:59;;;;;;;0.10;0.10;;;6.70;99.90;;;;;;5065662;28;20192;-82
2023/04/18 04:29:25;;;;;;;0.10;0.10;;;6.70;99.90;;;;;;5067237;28;20233;-83
2023/04/18 04:31:51;;;;;;;0.10;0.10;;;6.60;99.90;;;;;;5068412;28;20187;-82
2023/04/18 04:34:16;;;;;;;0.10;0.10;;;6.60;99.90;;;;;;5067986;28;20198;-82
2023/04/18 04:36:43;;;;;;;0.00;0.00;;;6.60;99.90;;;;;;5064436;28;20210;-83
2023/04/18 04:39:10;;;;;;;0.10;0.10;;;6.60;99.90;;;;;;5065428;28;20176;-82
2023/04/18 04:41:36;;;;;;;0.10;0.10;;;6.60;99.90;;;;;;5067328;28;20177;-82
2023/04/18 04:44:03;;;;;;;0.10;0.10;;;6.70;99.90;;;;;;5074698;28;20257;-83
2023/04/18 04:46:29;;;;;;;0.10;0.10;;;6.70;99.90;;;;;;5075953;28;20187;-82
2023/04/18 04:48:55;;;;;;;0.10;0.10;;;6.70;99.90;;;;;;5084255;28;20183;-83
2023/04/18 04:51:20;;;;;;;0.10;0.10;;;6.80;99.90;;;;;;5064717;28;20188;-83
2023/04/18 04:53:46;;;;;;;0.10;0.10;;;6.80;99.90;;;;;;5063337;28;20179;-82
2023/04/18 04:56:12;;;;;;;0.10;0.10;;;6.90;99.90;;;;;;5066103;28;20220;-82
2023/04/18 04:58:37;;;;;;;0.10;0.10;;;6.90;99.90;;;;;;5066494;28;20206;-82
2023/04/18 05:01:03;;;;;;;0.00;0.00;;;6.90;99.90;;;;;;5066375;28;20180;-82
2023/04/18 05:03:28;;;;;;;0.10;0.10;;;6.90;99.90;;;;;;5061702;28;20284;-83
2023/04/18 05:05:54;;;;;;;0.00;0.00;;;7.00;99.90;;;;;;5060159;28;20293;-83
2023/04/18 05:08:20;;;;;;;0.10;0.10;;;7.00;99.90;;;;;;5068582;28;20209;-83
2023/04/18 05:10:46;;;;;;;0.43;0.43;;;7.10;99.90;;;;;;5070933;28;20543;-82
2023/04/18 05:13:12;;;;;;;0.10;0.10;;;7.10;99.90;;;;;;5073363;28;20201;-82
2023/04/18 05:15:38;;;;;;;0.10;0.10;;;7.20;99.90;;;;;;5064472;28;20207;-82
2023/04/18 05:18:03;;;;;;;0.10;0.10;;;7.30;99.90;;;;;;5066321;28;20294;-83
2023/04/18 05:20:29;;;;;;;0.10;0.10;;;7.30;99.90;;;;;;5078660;28;20695;-85
2023/04/18 05:22:55;;;;;;;0.03;0.03;;;7.40;99.90;;;;;;5066980;28;20680;-84
2023/04/18 05:25:20;;;;;;;0.10;0.10;;;7.40;99.90;;;;;;5064493;28;20579;-85
2023/04/18 05:27:46;;;;;;;0.10;0.10;;;7.40;99.90;;;;;;5067559;28;20196;-83
2023/04/18 05:30:11;;;;;;;2.53;2.43;;;7.50;99.90;;;;;;5065782;28;20229;-84
2023/04/18 05:32:38;;;;;;;0.10;0.10;;;7.50;99.90;;;;;;5067791;28;20192;-84
2023/04/18 05:35:07;;;;;;;0.10;0.10;;;7.60;99.90;;;;;;5069319;28;20196;-83
2023/04/18 05:37:33;;;;;;;0.10;0.10;;;7.70;99.90;;;;;;5067254;28;20226;-84
2023/04/18 05:39:59;;;;;;;0.10;0.10;;;7.90;99.90;;;;;;5066605;28;20221;-84
2023/04/18 05:42:28;;;;;;;0.10;0.10;;;7.90;99.90;;;;;;5071667;28;20191;-84
2023/04/18 05:44:56;;;;;;;0.10;0.10;;;8.00;99.90;;;;;;5067822;28;20334;-84
2023/04/18 05:47:25;;;;;;;0.10;0.10;;;7.90;99.90;;;;;;5072083;28;20271;-84
2023/04/18 05:49:51;;;;;;;0.10;0.10;;;7.90;99.90;;;;;;5071479;28;20183;-85
2023/04/18 05:52:16;;;;;;;0.10;0.10;;;7.90;99.90;;;;;;5070775;28;20172;-85
2023/04/18 05:54:42;;;;;;;0.10;0.10;;;8.00;99.90;;;;;;5067326;28;20815;-82
2023/04/18 05:57:07;;;;;;;0.10;0.10;;;8.10;99.90;;;;;;5071666;28;20210;-82
2023/04/18 05:59:33;;;;;;;0.10;0.10;;;8.10;99.90;;;;;;5064612;28;20173;-83
2023/04/18 06:01:58;;;;;;;0.10;0.10;;;8.20;99.90;;;;;;5064363;28;20192;-83
2023/04/18 06:04:24;;;;;;;0.10;0.10;;;8.30;99.90;;;;;;5060805;28;20179;-83
2023/04/18 06:06:50;;;;;;;0.10;0.10;;;8.40;99.90;;;;;;5061762;28;20204;-82
2023/04/18 06:09:15;;;;;;;0.10;0.10;;;8.40;99.90;;;;;;5065412;28;20188;-82
2023/04/18 06:11:41;;;;;;;0.10;0.10;;;8.60;99.90;;;;;;5062473;28;20181;-82
2023/04/18 06:14:06;;;;;;;0.10;0.10;;;8.60;99.90;;;;;;5066921;28;20203;-82
2023/04/18 06:16:32;;;;;;;0.10;0.10;;;8.80;99.90;;;;;;5062874;28;20185;-83
2023/04/18 06:18:58;;;;;;;0.10;0.10;;;8.90;99.90;;;;;;5068473;28;20181;-82
2023/04/18 06:21:24;;;;;;;0.10;0.10;;;9.00;99.90;;;;;;5063895;28;20191;-83
2023/04/18 06:23:50;;;;;;;0.10;0.10;;;9.00;99.90;;;;;;5065732;28;20186;-82
2023/04/18 06:26:16;;;;;;;0.10;0.10;;;9.00;99.90;;;;;;5066764;28;20284;-82
2023/04/18 06:28:41;;;;;;;0.10;0.10;;;9.00;99.90;;;;;;5064439;28;20187;-83
2023/04/18 06:31:07;;;;;;;0.10;0.10;;;9.10;99.90;;;;;;5058242;28;20192;-84
2023/04/18 06:33:33;;;;;;;0.10;0.10;;;9.30;99.90;;;;;;5065697;28;20321;-84
2023/04/18 06:35:58;;;;;;;2.10;2.00;;;9.30;99.90;;;;;;5065630;28;20387;-84
2023/04/18 06:38:24;;;;;;;0.10;0.10;;;9.20;99.90;;;;;;5066718;28;20203;-84
2023/04/18 06:40:49;;;;;;;0.10;0.10;;;9.30;99.90;;;;;;5060785;28;20185;-84
2023/04/18 06:43:15;;;;;;;0.10;0.10;;;9.10;99.90;;;;;;5064810;28;20176;-84
2023/04/18 06:45:40;;;;;;;0.10;0.10;;;9.20;99.90;;;;;;5067744;28;20231;-83
2023/04/18 06:48:07;;;;;;;0.10;0.10;;;9.20;99.90;;;;;;5067469;28;20181;-84
2023/04/18 06:50:33;;;;;;;0.10;0.10;;;9.30;99.90;;;;;;5062995;28;20214;-85
2023/04/18 06:52:59;;;;;;;0.10;0.10;;;9.40;99.90;;;;;;5066325;28;20818;-84
2023/04/18 06:55:24;;;;;;;0.10;0.10;;;9.40;99.90;;;;;;5063392;28;20207;-84
2023/04/18 06:57:50;;;;;;;0.10;0.10;;;9.40;99.90;;;;;;5061788;28;20212;-84
2023/04/18 07:00:15;;;;;;;0.10;0.10;;;9.30;99.90;;;;;;5067837;28;20238;-85
2023/04/18 07:02:41;;;;;;;0.10;0.10;;;9.40;99.90;;;;;;5063430;28;20238;-83
2023/04/18 07:05:07;;;;;;;0.50;0.50;;;9.40;99.90;;;;;;5066161;28;20297;-84
2023/04/18 07:07:33;;;;;;;0.10;0.10;;;9.20;99.90;;;;;;5068689;28;20184;-84
2023/04/18 07:09:59;;;;;;;0.10;0.10;;;9.20;99.90;;;;;;5064854;28;20196;-84
2023/04/18 07:12:26;;;;;;;0.10;0.10;;;9.20;99.90;;;;;;5066417;28;20186;-84
2023/04/18 07:14:51;;;;;;;0.10;0.10;;;9.10;99.90;;;;;;5067402;28;20201;-84
2023/04/18 07:17:17;;;;;;;0.10;0.10;;;9.10;99.90;;;;;;5068757;28;20215;-84
2023/04/18 07:19:43;;;;;;;0.10;0.10;;;9.20;99.90;;;;;;5064885;28;20240;-83
2023/04/18 07:22:08;;;;;;;0.30;0.30;;;9.10;99.90;;;;;;5069300;28;20605;-83
2023/04/18 07:24:35;;;;;;;0.10;0.10;;;9.10;99.90;;;;;;5063368;28;20215;-84
2023/04/18 07:27:02;;;;;;;0.10;0.10;;;9.20;99.90;;;;;;5069192;28;20173;-83
2023/04/18 07:29:27;;;;;;;0.07;0.07;;;9.10;99.90;;;;;;5068109;28;21244;-83
2023/04/18 07:31:53;;;;;;;0.10;0.10;;;9.10;99.90;;;;;;5071221;28;20237;-82
2023/04/18 07:34:18;;;;;;;0.10;0.10;;;9.20;99.90;;;;;;5067605;28;20189;-83
2023/04/18 07:36:44;;;;;;;0.07;0.07;;;9.10;99.90;;;;;;5065814;28;20208;-86
2023/04/18 07:39:10;;;;;;;0.10;0.10;;;9.10;99.90;;;;;;5060540;28;20189;-83
2023/04/18 07:41:35;;;;;;;0.10;0.10;;;9.10;99.90;;;;;;5061155;28;20177;-83
2023/04/18 07:44:01;;;;;;;0.10;0.10;;;9.20;99.90;;;;;;5063099;28;20184;-82
2023/04/18 07:46:28;;;;;;;0.10;0.10;;;9.20;99.90;;;;;;5064364;28;20255;-84
2023/04/18 07:48:53;;;;;;;0.10;0.10;;;9.30;99.90;;;;;;5063284;28;20262;-84
2023/04/18 07:51:19;;;;;;;0.10;0.10;;;9.40;99.90;;;;;;5070284;28;20180;-84
2023/04/18 07:53:45;;;;;;;0.10;0.10;;;9.50;99.90;;;;;;5064050;28;20184;-83
2023/04/18 07:56:13;;;;;;;0.10;0.10;;;9.40;99.90;;;;;;5060631;28;20590;-83
2023/04/18 07:58:39;;;;;;;0.10;0.10;;;9.40;99.90;;;;;;5066924;28;20722;-84
2023/04/18 08:01:06;;;;;;;0.10;0.10;;;9.50;99.90;;;;;;5064637;28;20173;-83
2023/04/18 08:03:33;;;;;;;0.20;0.20;;;9.50;99.90;;;;;;5065459;28;20555;-83
2023/04/18 08:06:01;;;;;;;1.23;1.23;;;9.60;99.90;;;;;;5065682;28;20216;-84
2023/04/18 08:08:27;;;;;;;0.10;0.10;;;9.60;99.90;;;;;;5067170;28;20191;-84
2023/04/18 08:10:53;;;;;;;0.10;0.10;;;9.70;99.90;;;;;;5068258;28;20187;-84
2023/04/18 08:13:18;;;;;;;0.10;0.10;;;9.60;99.90;;;;;;5065722;28;20188;-84
2023/04/18 08:15:45;;;;;;;0.10;0.10;;;9.90;99.90;;;;;;5070018;28;20206;-84
2023/04/18 08:18:10;;;;;;;0.10;0.10;;;9.70;99.90;;;;;;5064782;28;20286;-85
2023/04/18 08:20:37;;;;;;;0.10;0.10;;;9.80;99.90;;;;;;5064926;28;20180;-83
2023/04/18 08:23:02;;;;;;;0.10;0.10;;;9.80;99.90;;;;;;5069050;28;20208;-84
2023/04/18 08:25:28;;;;;;;0.00;0.00;;;9.80;99.90;;;;;;5060710;28;20236;-85
2023/04/18 08:27:54;;;;;;;0.10;0.10;;;9.70;99.90;;;;;;5065766;28;20736;-84
2023/04/18 08:30:20;;;;;;;0.10;0.10;;;9.90;99.90;;;;;;5060644;28;20325;-84
2023/04/18 08:32:45;;;;;;;0.10;0.10;;;9.80;99.90;;;;;;5050275;28;20906;-83
2023/04/18 08:35:11;;;;;;;0.00;0.00;;;9.70;99.90;;;;;;5047135;28;20212;-84
2023/04/18 08:37:37;;;;;;;0.10;0.10;;;9.80;99.90;;;;;;5046900;28;20207;-84
2023/04/18 08:40:06;;;;;;;0.10;0.10;;;9.80;99.90;;;;;;5057176;28;20662;-84
2023/04/18 08:42:32;;;;;;;0.10;0.10;;;9.90;99.90;;;;;;5060701;28;21058;-84
2023/04/18 08:44:59;;;;;;;0.10;0.10;;;9.80;99.90;;;;;;5060176;28;20199;-85
2023/04/18 08:47:27;;;;;;;0.03;0.03;;;9.90;99.90;;;;;;5062296;28;20217;-84
2023/04/18 08:49:54;;;;;;;0.10;0.10;;;10.00;99.90;;;;;;5061601;28;20241;-85
2023/04/18 08:52:22;;;;;;;0.20;0.20;;;10.20;99.90;;;;;;5058379;28;20312;-83
2023/04/18 08:54:49;;;;;;;0.10;0.10;;;10.20;99.90;;;;;;5060442;28;20792;-84
2023/04/18 08:57:16;;;;;;;0.10;0.10;;;10.40;99.90;;;;;;5058709;28;20235;-84
2023/04/18 08:59:44;;;;;;;0.10;0.10;;;10.70;99.90;;;;;;5064256;28;20697;-83
2023/04/18 09:02:11;;;;;;;0.10;0.10;;;10.90;99.90;;;;;;5063099;28;20197;-84
2023/04/18 09:04:42;;;;;;;0.10;0.10;;;10.30;99.90;;;;;;5064339;28;20211;-84
2023/04/18 09:07:15;;;;;;;0.10;0.10;;;10.40;99.90;;;;;;5060329;28;20246;-83
2023/04/18 09:09:48;;;;;;;0.10;0.10;;;10.90;99.90;;;;;;5063868;28;20192;-83
2023/04/18 09:12:17;;;;;;;0.63;0.50;;;10.80;99.90;;;;;;5060166;28;20530;-84
2023/04/18 09:14:44;;;;;;;0.10;0.10;;;10.70;99.90;;;;;;5057099;28;20246;-84
2023/04/18 09:17:31;;;;;;;0.10;0.10;;;10.90;99.90;;;;;;5059432;28;20217;-82
2023/04/18 09:19:57;;;;;;;0.10;0.10;;;10.90;99.90;;;;;;5065804;28;20173;-84
2023/04/18 09:22:26;;;;;;;0.00;0.00;;;11.20;99.90;;;;;;5063421;28;20596;-84
2023/04/18 09:24:56;;;;;;;0.10;0.10;;;11.10;99.90;;;;;;5067353;28;20200;-84
2023/04/18 09:27:23;;;;;;;0.10;0.10;;;11.20;99.90;;;;;;5064073;28;20178;-85
2023/04/18 09:29:51;;;;;;;0.77;0.77;;;11.40;99.90;;;;;;5062877;28;20685;-84
2023/04/18 09:32:29;;;;;;;0.10;0.10;;;11.40;99.90;;;;;;5063099;28;20182;-86
2023/04/18 09:35:02;;;;;;;0.10;0.10;;;11.30;99.90;;;;;;5062162;28;20288;-84
2023/04/18 09:37:28;;;;;;;0.10;0.10;;;11.80;99.90;;;;;;5062088;28;20204;-83
2023/04/18 09:39:54;;;;;;;0.10;0.10;;;12.20;99.90;;;;;;5058464;28;20188;-84
2023/04/18 09:42:21;;;;;;;0.10;0.10;;;12.50;99.90;;;;;;5063799;28;20181;-83
2023/04/18 09:45:04;;;;;;;0.10;0.10;;;12.70;99.90;;;;;;5064839;28;20204;-82
2023/04/18 09:47:33;;;;;;;0.10;0.10;;;12.50;99.90;;;;;;5061843;28;20231;-81
2023/04/18 09:49:59;;;;;;;0.10;0.10;;;12.50;99.90;;;;;;5057672;28;20254;-86
2023/04/18 09:52:28;;;;;;;0.10;0.10;;;12.50;99.90;;;;;;5056412;28;20200;-83
2023/04/18 09:54:58;;;;;;;0.10;0.10;;;13.00;99.90;;;;;;5062048;28;20217;-84
2023/04/18 09:57:29;;;;;;;0.10;0.10;;;13.10;99.90;;;;;;5058347;28;20386;-83
2023/04/18 10:00:07;;;;;;;0.10;0.10;;;13.20;99.90;;;;;;5061920;28;20539;-84
2023/04/18 10:02:44;;;;;;;0.10;0.10;;;12.60;99.90;;;;;;5059386;28;20662;-84
2023/04/18 10:05:11;;;;;;;0.10;0.10;;;12.80;99.90;;;;;;5065132;28;20196;-84
2023/04/18 10:07:37;;;;;;;0.10;0.10;;;12.80;99.90;;;;;;5059600;28;21236;-84
2023/04/18 10:10:03;;;;;;;0.10;0.10;;;13.10;99.90;;;;;;5063006;28;20189;-84
2023/04/18 10:12:29;;;;;;;0.10;0.10;;;13.40;99.90;;;;;;5062614;28;20215;-83
2023/04/18 10:14:55;;;;;;;0.10;0.10;;;13.10;99.90;;;;;;5062549;28;20213;-84
2023/04/18 10:17:21;;;;;;;0.10;0.10;;;13.40;99.90;;;;;;5055391;28;20237;-83
2023/04/18 10:20:04;;;;;;;0.10;0.10;;;13.30;99.90;;;;;;5057711;28;20257;-84
2023/04/18 10:22:30;;;;;;;0.10;0.10;;;13.60;99.90;;;;;;5061025;28;20210;-83
2023/04/18 10:24:56;;;;;;;0.10;0.10;;;14.30;99.90;;;;;;5056993;28;20201;-83
2023/04/18 10:27:47;;;;;;;0.10;0.10;;;14.20;99.90;;;;;;5054342;28;20204;-83
2023/04/18 10:30:14;;;;;;;0.87;0.87;;;14.40;99.90;;;;;;5062560;28;20194;-82
2023/04/18 10:32:40;;;;;;;0.10;0.10;;;14.20;99.90;;;;;;5058888;28;20270;-85
2023/04/18 10:35:06;;;;;;;0.30;0.30;;;14.20;99.90;;;;;;5062326;28;20294;-85
2023/04/18 10:37:32;;;;;;;0.10;0.10;;;14.60;99.90;;;;;;5057789;28;20678;-84
2023/04/18 10:40:04;;;;;;;0.10;0.10;;;14.80;99.90;;;;;;5059032;28;20624;-83
2023/04/18 10:42:52;;;;;;;0.10;0.10;;;15.20;99.90;;;;;;5061565;28;20203;-83
2023/04/18 10:45:19;;;;;;;0.10;0.10;;;15.30;99.90;;;;;;5058295;28;20283;-83
2023/04/18 10:47:45;;;;;;;0.10;0.10;;;15.50;99.90;;;;;;5061132;28;20299;-82
2023/04/18 10:50:11;;;;;;;0.10;0.10;;;15.40;99.90;;;;;;5058352;28;20291;-82
2023/04/18 10:52:37;;;;;;;0.10;0.10;;;15.60;99.90;;;;;;5058612;28;20287;-82
2023/04/18 10:55:09;;;;;;;0.10;0.10;;;15.90;99.90;;;;;;5062485;28;20242;-82
2023/04/18 10:57:43;;;;;;;0.10;0.10;;;15.70;99.90;;;;;;5055927;28;20323;-82
2023/04/18 11:00:11;;;;;;;4.17;2.40;;;15.70;99.90;;;;;;5060565;28;20196;-82
2023/04/18 11:02:38;;;;;;;0.10;0.10;;;15.90;99.90;;;;;;5078400;28;20260;-82
2023/04/18 11:05:06;;;;;;;0.20;0.20;;;15.70;99.90;;;;;;5063274;28;20196;-82
2023/04/18 11:07:38;;;;;;;0.50;0.50;;;15.60;99.90;;;;;;5065396;28;20181;-83
2023/04/18 11:10:08;;;;;;;0.73;0.73;;;15.20;99.90;;;;;;5063957;28;20523;-82
2023/04/18 11:12:36;;;;;;;0.10;0.10;;;14.90;99.90;;;;;;5067773;28;20698;-83
2023/04/18 11:15:21;;;;;;;0.10;0.10;;;15.20;99.90;;;;;;5065825;28;20212;-82
2023/04/18 11:18:03;;;;;;;0.10;0.10;;;15.00;99.90;;;;;;5064525;28;20204;-83
2023/04/18 11:20:39;;;;;;;1.13;1.13;;;14.20;99.90;;;;;;5064773;28;20185;-83
2023/04/18 11:23:15;;;;;;;0.10;0.10;;;14.40;99.90;;;;;;5062591;28;20184;-83
2023/04/18 11:25:43;;;;;;;0.20;0.20;;;14.10;99.90;;;;;;5084440;28;20209;-82
2023/04/18 11:28:12;;;;;;;0.10;0.10;;;14.20;99.90;;;;;;5065083;28;20192;-82
2023/04/18 11:30:39;;;;;;;0.10;0.10;;;14.60;99.90;;;;;;5065677;28;20188;-82
2023/04/18 11:33:13;;;;;;;0.10;0.10;;;14.60;99.90;;;;;;5066822;28;20270;-83
2023/04/18 11:35:41;;;;;;;0.10;0.10;;;15.10;99.90;;;;;;5059783;28;20272;-82
2023/04/18 11:38:07;;;;;;;0.10;0.10;;;15.30;99.90;;;;;;5066044;28;20218;-82
2023/04/18 11:40:34;;;;;;;0.10;0.10;;;15.00;99.90;;;;;;5065446;28;20180;-83
2023/04/18 11:43:01;;;;;;;0.10;0.10;;;14.70;99.90;;;;;;5057449;28;20765;-82
2023/04/18 11:45:27;;;;;;;0.10;0.10;;;15.10;99.90;;;;;;5061659;28;20207;-83
2023/04/18 11:47:57;;;;;;;0.10;0.10;;;15.20;99.90;;;;;;5064443;28;20196;-82
2023/04/18 11:50:23;;;;;;;0.10;0.10;;;15.50;99.90;;;;;;5059656;28;20679;-83
2023/04/18 11:52:51;;;;;;;0.10;0.10;;;15.20;99.90;;;;;;5063660;28;20196;-83
2023/04/18 11:55:20;;;;;;;0.10;0.10;;;15.20;99.90;;;;;;5060603;28;20217;-82
2023/04/18 11:57:59;;;;;;;0.10;0.10;;;15.40;99.90;;;;;;5065417;28;20204;-82
2023/04/18 12:00:40;;;;;;;0.10;0.10;;;15.30;99.90;;;;;;5066318;28;20264;-82
2023/04/18 12:03:14;;;;;;;0.10;0.10;;;15.20;99.90;;;;;;5064572;28;20196;-81
2023/04/18 12:05:40;;;;;;;0.03;0.03;;;15.20;99.90;;;;;;5066103;28;20205;-81
2023/04/18 12:08:32;;;;;;;0.10;0.10;;;15.80;99.90;;;;;;5065870;28;20184;-81
2023/04/18 12:10:57;;;;;;;0.10;0.10;;;16.00;99.90;;;;;;5062256;28;20209;-81
2023/04/18 12:13:25;;;;;;;0.10;0.10;;;16.00;99.90;;;;;;5063365;28;20181;-82
2023/04/18 12:15:51;;;;;;;0.10;0.10;;;16.00;99.90;;;;;;5067311;28;20208;-82
2023/04/18 12:18:18;;;;;;;0.10;0.10;;;16.10;99.90;;;;;;5059868;28;20678;-83
2023/04/18 12:20:50;;;;;;;0.10;0.10;;;15.40;99.90;;;;;;5066752;28;20209;-82
2023/04/18 12:23:38;;;;;;;0.53;0.53;;;15.80;99.90;;;;;;5065640;28;20191;-83
2023/04/18 12:26:17;;;;;;;0.10;0.10;;;15.30;99.90;;;;;;5065885;28;20205;-82
2023/04/18 12:28:44;;;;;;;0.10;0.10;;;15.20;99.90;;;;;;5066807;28;20405;-83
2023/04/18 12:31:10;;;;;;;0.10;0.10;;;15.00;99.90;;;;;;5068415;28;20189;-83
2023/04/18 12:33:36;;;;;;;0.10;0.10;;;15.30;99.90;;;;;;5064587;28;20195;-82
2023/04/18 12:36:04;;;;;;;0.10;0.10;;;15.40;99.90;;;;;;5063436;28;20726;-83
2023/04/18 12:38:29;;;;;;;0.10;0.10;;;15.20;99.90;;;;;;5064193;28;20209;-83
2023/04/18 12:40:55;;;;;;;0.10;0.10;;;15.20;99.90;;;;;;5062344;28;20200;-82
2023/04/18 12:43:20;;;;;;;0.10;0.10;;;15.10;99.90;;;;;;5059196;28;20186;-83
2023/04/18 12:45:46;;;;;;;0.10;0.10;;;15.20;99.90;;;;;;5063493;28;20323;-83
2023/04/18 12:48:12;;;;;;;0.10;0.10;;;15.40;99.90;;;;;;5060780;28;20185;-83
2023/04/18 12:50:38;;;;;;;0.40;0.40;;;15.50;99.90;;;;;;5062537;28;20220;-83
2023/04/18 12:53:03;;;;;;;0.10;0.10;;;15.30;99.90;;;;;;5064882;28;20185;-83